Time;durP1;ratioP1;P1;durP2;ratioP2;P2;SDS_P1;SDS_P2;PMS_P1;PMS_P2;Temp;Humidity;BMP_temperature;BMP_pressure;BME280_temperature;BME280_humidity;BME280_pressure;Samples;Min_cycle;Max_cycle;Signal;HPM_P1;HPM_P2
2022/08/13 00:01:38;;;;;;;8.73;3.67;;;21.20;99.90;;;;;;5154964;27;20050;-71
2022/08/13 00:04:06;;;;;;;8.40;3.37;;;21.10;99.90;;;;;;5154457;27;20553;-74
2022/08/13 00:09:04;;;;;;;6.57;3.43;;;21.10;99.90;;;;;;5154842;27;20202;-71
2022/08/13 00:14:16;;;;;;;6.43;3.83;;;21.00;99.90;;;;;;5154501;27;20053;-71
2022/08/13 00:16:41;;;;;;;11.80;3.90;;;21.00;99.90;;;;;;5154595;27;20103;-71
2022/08/13 00:19:07;;;;;;;7.70;4.47;;;21.00;99.90;;;;;;5119190;27;20533;-72
2022/08/13 00:21:33;;;;;;;9.53;4.33;;;21.00;99.90;;;;;;5154674;27;20038;-71
2022/08/13 00:23:59;;;;;;;9.00;4.60;;;20.90;99.90;;;;;;5154537;27;20051;-71
2022/08/13 00:26:26;;;;;;;7.63;4.17;;;20.90;99.90;;;;;;5135961;27;20383;-72
2022/08/13 00:28:54;;;;;;;8.07;3.70;;;20.90;99.90;;;;;;5154435;27;20051;-71
2022/08/13 00:31:24;;;;;;;10.50;4.10;;;20.80;99.90;;;;;;5154121;27;20038;-71
2022/08/13 00:33:50;;;;;;;9.27;4.27;;;20.80;99.90;;;;;;5154367;27;20088;-71
2022/08/13 00:36:16;;;;;;;7.33;4.23;;;20.70;99.90;;;;;;5153966;27;20082;-72
2022/08/13 00:38:44;;;;;;;6.03;3.60;;;20.70;99.90;;;;;;5154530;27;20043;-71
2022/08/13 00:41:37;;;;;;;7.43;3.80;;;20.70;99.90;;;;;;5153679;27;20490;-72
2022/08/13 00:44:01;;;;;;;7.10;4.37;;;20.70;99.90;;;;;;5135795;27;20089;-71
2022/08/13 00:46:27;;;;;;;6.37;4.10;;;20.60;99.90;;;;;;5153992;27;20202;-71
2022/08/13 00:48:54;;;;;;;7.80;4.13;;;20.60;99.90;;;;;;5154257;27;20197;-71
2022/08/13 00:51:22;;;;;;;9.93;4.57;;;20.60;99.90;;;;;;5135562;27;20125;-71
2022/08/13 00:53:48;;;;;;;13.07;5.97;;;20.60;99.90;;;;;;5154195;27;20059;-71
2022/08/13 00:56:14;;;;;;;12.47;7.20;;;20.50;99.90;;;;;;5153760;27;20062;-72
2022/08/13 00:58:41;;;;;;;9.20;4.43;;;20.50;99.90;;;;;;5154161;27;20062;-71
2022/08/13 01:01:08;;;;;;;15.97;4.93;;;20.50;99.90;;;;;;5154111;27;20051;-71
2022/08/13 01:03:36;;;;;;;10.00;4.23;;;20.40;99.90;;;;;;5153739;27;20491;-71
2022/08/13 01:06:04;;;;;;;7.20;4.67;;;20.40;99.90;;;;;;5154016;27;20050;-71
2022/08/13 01:08:32;;;;;;;6.83;4.33;;;20.40;99.90;;;;;;5153779;27;20082;-71
2022/08/13 01:11:02;;;;;;;7.37;4.10;;;20.30;99.90;;;;;;5153986;27;20071;-71
2022/08/13 01:13:30;;;;;;;9.27;4.33;;;20.30;99.90;;;;;;5135447;27;20058;-71
2022/08/13 01:15:57;;;;;;;7.90;3.97;;;20.20;99.90;;;;;;5153881;27;20086;-71
2022/08/13 01:18:24;;;;;;;9.40;4.13;;;20.20;99.90;;;;;;5153532;27;20139;-71
2022/08/13 01:21:02;;;;;;;9.53;4.50;;;20.20;99.90;;;;;;5154068;27;20047;-71
2022/08/13 01:23:29;;;;;;;11.30;4.50;;;20.20;99.90;;;;;;5153637;27;20098;-71
2022/08/13 01:25:56;;;;;;;7.70;4.10;;;20.20;99.90;;;;;;5153334;27;20524;-71
2022/08/13 01:28:23;;;;;;;9.07;4.43;;;20.10;99.90;;;;;;5153578;27;20370;-71
2022/08/13 01:30:52;;;;;;;9.97;3.97;;;20.10;99.90;;;;;;5153789;27;20087;-71
2022/08/13 01:33:18;;;;;;;7.17;3.93;;;20.10;99.90;;;;;;5153445;27;20047;-72
2022/08/13 01:35:48;;;;;;;9.73;4.00;;;20.10;99.90;;;;;;5153975;27;20620;-71
2022/08/13 01:38:14;;;;;;;6.33;4.37;;;20.10;99.90;;;;;;5153464;27;20043;-74
2022/08/13 01:40:42;;;;;;;8.80;4.23;;;20.10;99.90;;;;;;5153717;27;20054;-71
2022/08/13 01:43:08;;;;;;;7.53;4.23;;;20.10;99.90;;;;;;5153631;27;20047;-71
2022/08/13 01:45:35;;;;;;;6.77;4.00;;;20.10;99.90;;;;;;5153400;27;20926;-71
2022/08/13 01:50:47;;;;;;;7.78;4.32;;;20.10;99.90;;;;;;5153922;27;20046;-71
2022/08/13 01:53:15;;;;;;;9.17;4.93;;;20.10;99.90;;;;;;5135378;27;20043;-72
2022/08/13 01:55:46;;;;;;;7.77;4.37;;;20.00;99.90;;;;;;5135358;27;20382;-71
2022/08/13 01:58:19;;;;;;;10.07;4.20;;;20.10;99.90;;;;;;5153588;27;20045;-71
2022/08/13 02:00:47;;;;;;;6.73;3.97;;;20.10;99.90;;;;;;5154579;27;20051;-71
2022/08/13 02:03:16;;;;;;;8.73;4.83;;;20.10;99.90;;;;;;5157282;27;20038;-71
2022/08/13 02:05:42;;;;;;;6.20;3.80;;;20.00;99.90;;;;;;5157147;27;20042;-71
2022/08/13 02:08:11;;;;;;;8.40;4.13;;;20.00;99.90;;;;;;5157334;27;20140;-71
2022/08/13 02:10:43;;;;;;;9.47;4.77;;;20.00;99.90;;;;;;5138591;27;20819;-71
2022/08/13 02:13:15;;;;;;;9.27;3.90;;;20.00;99.90;;;;;;5157183;27;20043;-71
2022/08/13 02:15:42;;;;;;;7.13;4.37;;;20.00;99.90;;;;;;5156814;27;20047;-72
2022/08/13 02:18:17;;;;;;;6.47;3.73;;;19.90;99.90;;;;;;5157020;27;20410;-71
2022/08/13 02:20:45;;;;;;;9.48;4.30;;;19.90;99.90;;;;;;5157238;27;20092;-71
2022/08/13 02:23:19;;;;;;;6.93;4.00;;;19.90;99.90;;;;;;5156941;27;20099;-71
2022/08/13 02:25:47;;;;;;;9.57;4.10;;;19.90;99.90;;;;;;5156594;27;20213;-71
2022/08/13 02:28:14;;;;;;;8.27;3.90;;;19.90;99.90;;;;;;5156829;27;20193;-71
2022/08/13 02:30:41;;;;;;;5.97;4.17;;;19.80;99.90;;;;;;5156443;27;20046;-71
2022/08/13 02:33:08;;;;;;;9.33;3.87;;;19.80;99.90;;;;;;5156679;27;20125;-71
2022/08/13 02:35:35;;;;;;;11.33;4.50;;;19.80;99.90;;;;;;5156305;27;20047;-72
2022/08/13 02:38:05;;;;;;;8.80;4.00;;;19.80;99.90;;;;;;5156687;27;20042;-71
2022/08/13 02:43:16;;;;;;;5.53;3.58;;;19.80;99.90;;;;;;5156616;27;20054;-71
2022/08/13 02:45:45;;;;;;;7.93;3.73;;;19.80;99.90;;;;;;5156132;27;20113;-71
2022/08/13 02:48:11;;;;;;;6.13;3.80;;;19.80;99.90;;;;;;5156376;27;20082;-71
2022/08/13 02:50:42;;;;;;;8.43;3.70;;;19.80;99.90;;;;;;5156122;27;20038;-71
2022/08/13 02:53:13;;;;;;;10.80;4.30;;;19.80;99.90;;;;;;5138035;27;20093;-71
2022/08/13 02:55:41;;;;;;;7.83;3.53;;;19.80;99.90;;;;;;5156144;27;20050;-71
2022/08/13 02:58:08;;;;;;;6.33;3.80;;;19.70;99.90;;;;;;5156152;27;20039;-71
2022/08/13 03:00:34;;;;;;;6.77;3.63;;;19.70;99.90;;;;;;5137593;27;20482;-71
2022/08/13 03:03:01;;;;;;;8.17;3.80;;;19.80;99.90;;;;;;5156169;27;20055;-71
2022/08/13 03:05:30;;;;;;;10.10;4.07;;;19.70;99.90;;;;;;5137413;27;20051;-71
2022/08/13 03:07:56;;;;;;;8.13;3.70;;;19.60;99.90;;;;;;5155756;27;20080;-71
2022/08/13 03:10:25;;;;;;;6.33;3.67;;;19.60;99.90;;;;;;5137307;27;20050;-71
2022/08/13 03:12:58;;;;;;;6.40;3.80;;;19.60;99.90;;;;;;5155020;27;20046;-71
2022/08/13 03:15:25;;;;;;;6.67;4.10;;;19.60;99.90;;;;;;5155795;27;20051;-74
2022/08/13 03:17:50;;;;;;;6.80;3.87;;;19.60;99.90;;;;;;5156021;27;20382;-71
2022/08/13 03:20:17;;;;;;;6.33;3.73;;;19.60;99.90;;;;;;5155435;27;20039;-71
2022/08/13 03:23:01;;;;;;;6.70;3.90;;;19.50;99.90;;;;;;5155467;27;20051;-69
2022/08/13 03:25:29;;;;;;;8.23;3.30;;;19.60;99.90;;;;;;5155667;27;20074;-69
2022/08/13 03:27:58;;;;;;;7.93;4.00;;;19.50;99.90;;;;;;5155639;27;20143;-69
2022/08/13 03:30:25;;;;;;;9.27;4.00;;;19.40;99.90;;;;;;5155598;27;20051;-69
2022/08/13 03:32:51;;;;;;;5.67;3.80;;;19.40;99.90;;;;;;5119848;27;20074;-69
2022/08/13 03:35:23;;;;;;;6.43;3.53;;;19.40;99.90;;;;;;5155513;27;20039;-69
2022/08/13 03:37:54;;;;;;;8.47;3.73;;;19.40;99.90;;;;;;5155197;27;20039;-69
2022/08/13 03:40:22;;;;;;;5.63;3.83;;;19.40;99.90;;;;;;5155362;27;20130;-71
2022/08/13 03:42:49;;;;;;;9.40;4.17;;;19.40;99.90;;;;;;5155091;27;20042;-69
2022/08/13 03:45:16;;;;;;;5.43;3.57;;;19.30;99.90;;;;;;5155401;27;20447;-69
2022/08/13 03:47:42;;;;;;;7.13;3.57;;;19.30;99.90;;;;;;5154971;27;20078;-69
2022/08/13 03:50:09;;;;;;;6.00;3.77;;;19.30;99.90;;;;;;5136886;27;20047;-69
2022/08/13 03:52:36;;;;;;;6.07;4.00;;;19.30;99.90;;;;;;5154804;27;20047;-69
2022/08/13 03:55:04;;;;;;;5.73;3.83;;;19.30;99.90;;;;;;5155173;27;20402;-69
2022/08/13 03:57:31;;;;;;;7.17;4.27;;;19.30;99.90;;;;;;5154686;27;20042;-70
2022/08/13 03:59:57;;;;;;;7.40;3.70;;;19.20;99.90;;;;;;5155157;27;20047;-69
2022/08/13 04:02:23;;;;;;;6.57;3.63;;;19.20;99.90;;;;;;5155009;27;20142;-69
2022/08/13 04:04:50;;;;;;;7.33;3.53;;;19.20;99.90;;;;;;5154579;27;20178;-69
2022/08/13 04:07:20;;;;;;;7.90;3.90;;;19.20;99.90;;;;;;5154835;27;20047;-69
2022/08/13 04:09:46;;;;;;;8.50;4.23;;;19.10;99.90;;;;;;5154476;27;20047;-69
2022/08/13 04:12:13;;;;;;;7.27;3.47;;;19.10;99.90;;;;;;5154755;27;20069;-69
2022/08/13 04:14:43;;;;;;;8.60;3.87;;;19.10;99.90;;;;;;5154460;27;20092;-69
2022/08/13 04:17:10;;;;;;;7.03;3.70;;;19.10;99.90;;;;;;5154420;27;20478;-69
2022/08/13 04:19:40;;;;;;;7.10;3.70;;;19.10;99.90;;;;;;5154445;27;20054;-69
2022/08/13 04:22:07;;;;;;;7.90;3.80;;;19.10;99.90;;;;;;5154517;27;20135;-69
2022/08/13 04:24:34;;;;;;;9.17;3.90;;;19.00;99.90;;;;;;5153887;27;20469;-70
2022/08/13 04:27:02;;;;;;;5.33;3.53;;;19.00;99.90;;;;;;5154411;27;20045;-69
2022/08/13 04:29:28;;;;;;;10.50;4.13;;;19.00;99.90;;;;;;5154310;27;20043;-69
2022/08/13 04:31:54;;;;;;;8.03;3.40;;;18.90;99.90;;;;;;5153771;27;20410;-72
2022/08/13 04:34:22;;;;;;;9.37;4.00;;;18.90;99.90;;;;;;5154194;27;20053;-69
2022/08/13 04:36:48;;;;;;;6.50;3.87;;;18.90;99.90;;;;;;5153942;27;20122;-69
2022/08/13 04:39:14;;;;;;;8.03;3.70;;;19.00;99.90;;;;;;5154239;27;20438;-69
2022/08/13 04:41:40;;;;;;;9.77;4.13;;;19.00;99.90;;;;;;5153876;27;20473;-70
2022/08/13 04:44:05;;;;;;;7.10;3.50;;;19.00;99.90;;;;;;5154201;27;20093;-68
2022/08/13 04:46:31;;;;;;;7.53;3.53;;;19.00;99.90;;;;;;5154003;27;20042;-69
2022/08/13 04:48:57;;;;;;;8.87;4.07;;;19.00;99.90;;;;;;5153782;27;20147;-69
2022/08/13 04:51:25;;;;;;;5.53;3.40;;;18.90;99.90;;;;;;5135458;27;20386;-69
2022/08/13 04:53:52;;;;;;;6.00;3.50;;;18.90;99.90;;;;;;5153654;27;20042;-69
2022/08/13 04:56:18;;;;;;;7.73;4.20;;;19.00;99.90;;;;;;5154171;27;20474;-69
2022/08/13 04:58:45;;;;;;;7.03;3.73;;;19.00;99.90;;;;;;5153768;27;20042;-69
2022/08/13 05:01:11;;;;;;;5.47;3.60;;;19.00;99.90;;;;;;5153925;27;20042;-69
2022/08/13 05:03:41;;;;;;;12.10;4.50;;;19.00;99.90;;;;;;5153971;27;20449;-70
2022/08/13 05:06:17;;;;;;;6.47;3.40;;;19.00;99.90;;;;;;5153875;27;20049;-70
2022/08/13 05:08:43;;;;;;;9.97;3.60;;;19.10;99.90;;;;;;5153650;27;20041;-70
2022/08/13 05:11:12;;;;;;;6.63;4.07;;;19.10;99.90;;;;;;5154141;27;20042;-69
2022/08/13 05:13:39;;;;;;;8.27;3.40;;;19.10;99.90;;;;;;5153211;27;20509;-70
2022/08/13 05:16:09;;;;;;;5.60;3.90;;;19.10;99.90;;;;;;5135543;27;20065;-70
2022/08/13 05:18:37;;;;;;;8.20;3.93;;;19.20;99.90;;;;;;5153753;27;20046;-69
2022/08/13 05:21:06;;;;;;;7.90;3.60;;;19.20;99.90;;;;;;5153783;27;20125;-69
2022/08/13 05:23:37;;;;;;;7.67;4.17;;;19.20;99.90;;;;;;5153692;27;20130;-69
2022/08/13 05:26:04;;;;;;;9.63;3.60;;;19.30;99.90;;;;;;5134766;27;20513;-69
2022/08/13 05:28:31;;;;;;;7.63;3.70;;;19.30;99.90;;;;;;5153714;27;20038;-69
2022/08/13 05:30:58;;;;;;;8.57;3.30;;;19.30;99.90;;;;;;5153508;27;20043;-69
2022/08/13 05:33:26;;;;;;;8.90;3.27;;;19.30;99.90;;;;;;5153677;27;20045;-69
2022/08/13 05:35:55;;;;;;;7.43;3.97;;;19.40;99.90;;;;;;5154457;27;20046;-69
2022/08/13 05:38:23;;;;;;;6.53;3.00;;;19.50;99.90;;;;;;5139322;27;20042;-69
2022/08/13 05:40:50;;;;;;;7.53;3.00;;;19.50;99.90;;;;;;5157465;27;20126;-70
2022/08/13 05:43:17;;;;;;;8.00;3.63;;;19.60;99.90;;;;;;5157573;27;20041;-71
2022/08/13 05:45:55;;;;;;;6.03;3.63;;;19.70;99.90;;;;;;5157389;27;20050;-71
2022/08/13 05:48:20;;;;;;;8.00;3.30;;;19.80;99.90;;;;;;5139316;27;20090;-69
2022/08/13 05:50:46;;;;;;;7.27;3.50;;;19.90;99.90;;;;;;5138764;27;20066;-72
2022/08/13 05:53:12;;;;;;;10.20;3.70;;;20.10;99.90;;;;;;5157484;27;20139;-72
2022/08/13 05:55:40;;;;;;;10.10;3.40;;;20.50;99.90;;;;;;5157281;27;20049;-72
2022/08/13 05:58:08;;;;;;;6.90;3.50;;;21.40;99.90;;;;;;5157201;27;20053;-72
2022/08/13 06:03:25;;;;;;;7.17;3.50;;;24.10;92.50;;;;;;5157332;27;20055;-70
2022/08/13 06:05:55;;;;;;;6.23;3.23;;;25.40;83.00;;;;;;5157077;27;20050;-70
2022/08/13 06:08:31;;;;;;;6.10;2.87;;;26.40;67.40;;;;;;5157175;27;20116;-71
2022/08/13 06:11:02;;;;;;;7.37;3.50;;;27.20;64.20;;;;;;5156874;27;20050;-71
2022/08/13 06:13:30;;;;;;;8.97;3.53;;;28.00;61.30;;;;;;5157082;27;20074;-71
2022/08/13 06:15:58;;;;;;;6.30;3.30;;;28.50;51.60;;;;;;5138316;27;20134;-71
2022/08/13 06:18:29;;;;;;;7.80;3.30;;;29.00;55.50;;;;;;5156918;27;20042;-71
2022/08/13 06:20:57;;;;;;;5.77;2.60;;;29.70;50.10;;;;;;5156679;27;20042;-71
2022/08/13 06:23:25;;;;;;;5.30;3.27;;;30.20;50.80;;;;;;5138557;27;20475;-71
2022/08/13 06:25:53;;;;;;;6.30;2.60;;;30.60;51.40;;;;;;5156545;27;20061;-71
2022/08/13 06:28:21;;;;;;;4.97;2.53;;;30.80;47.70;;;;;;5156690;27;20506;-71
2022/08/13 06:30:51;;;;;;;7.00;2.93;;;31.20;46.20;;;;;;5156513;27;20470;-72
2022/08/13 06:33:21;;;;;;;8.23;2.50;;;31.70;44.70;;;;;;5156809;27;20043;-71
2022/08/13 06:35:56;;;;;;;5.75;2.80;;;32.20;44.00;;;;;;5156311;27;20046;-72
2022/08/13 06:38:33;;;;;;;9.63;2.67;;;32.80;40.90;;;;;;5156866;27;20122;-71
2022/08/13 06:41:00;;;;;;;5.63;2.50;;;32.90;42.10;;;;;;5156270;27;20050;-71
2022/08/13 06:43:30;;;;;;;8.00;2.70;;;33.20;41.80;;;;;;5156704;27;20050;-71
2022/08/13 06:45:59;;;;;;;6.25;2.58;;;33.50;39.60;;;;;;5137554;27;20042;-72
2022/08/13 06:48:27;;;;;;;4.35;2.67;;;33.80;40.40;;;;;;5138014;27;20039;-71
2022/08/13 06:50:53;;;;;;;14.85;2.60;;;33.90;40.50;;;;;;5156071;27;20057;-72
2022/08/13 06:53:19;;;;;;;4.40;2.50;;;34.30;39.60;;;;;;5156205;27;20043;-72
2022/08/13 06:55:48;;;;;;;5.47;2.30;;;34.30;38.30;;;;;;5156212;27;20182;-72
2022/08/13 06:58:14;;;;;;;6.60;2.38;;;34.40;37.60;;;;;;5156407;27;20047;-72
2022/08/13 07:00:41;;;;;;;8.15;2.30;;;34.50;38.80;;;;;;5156403;27;20049;-72
2022/08/13 07:03:07;;;;;;;5.68;2.47;;;34.90;38.50;;;;;;5155864;27;20050;-72
2022/08/13 07:05:41;;;;;;;7.18;2.53;;;;;;;;;;5156039;27;20378;-72
2022/08/13 07:08:11;;;;;;;6.60;2.30;;;35.50;36.40;;;;;;5155810;27;20039;-72
2022/08/13 07:10:46;;;;;;;7.75;2.40;;;35.60;37.40;;;;;;5137726;27;20042;-72
2022/08/13 07:13:12;;;;;;;6.25;2.40;;;35.90;36.80;;;;;;5155603;27;20082;-71
2022/08/13 07:15:38;;;;;;;4.05;2.28;;;36.10;36.70;;;;;;5155869;27;20089;-72
2022/08/13 07:18:05;;;;;;;7.88;2.72;;;36.50;36.20;;;;;;5155423;27;20522;-72
2022/08/13 07:20:32;;;;;;;5.25;2.30;;;36.20;35.50;;;;;;5155861;27;20130;-71
2022/08/13 07:22:58;;;;;;;7.60;2.40;;;36.40;35.70;;;;;;5155443;27;20493;-73
2022/08/13 07:25:30;;;;;;;7.20;2.47;;;36.50;35.40;;;;;;5155273;27;20142;-73
2022/08/13 07:27:58;;;;;;;7.90;2.58;;;36.80;34.90;;;;;;5155322;27;20043;-73
2022/08/13 07:30:25;;;;;;;7.25;2.38;;;36.60;35.10;;;;;;5155711;27;20180;-72
2022/08/13 07:32:52;;;;;;;5.00;2.10;;;37.10;34.10;;;;;;5155401;27;20607;-74
2022/08/13 07:35:18;;;;;;;5.03;2.33;;;36.90;34.00;;;;;;5155579;27;20042;-73
2022/08/13 07:37:45;;;;;;;4.20;2.15;;;37.00;33.60;;;;;;5155347;27;20598;-72
2022/08/13 07:40:11;;;;;;;3.83;2.35;;;;;;;;;;5155151;27;20125;-72
2022/08/13 07:42:41;;;;;;;4.95;2.15;;;37.50;32.70;;;;;;5155357;27;20129;-73
2022/08/13 07:45:08;;;;;;;4.68;2.47;;;37.70;32.70;;;;;;5136641;27;20502;-73
2022/08/13 07:47:35;;;;;;;9.15;2.10;;;38.20;33.10;;;;;;5155168;27;20107;-73
2022/08/13 07:50:10;;;;;;;11.57;2.47;;;37.90;32.70;;;;;;5155285;27;20364;-73
2022/08/13 07:52:38;;;;;;;4.43;2.78;;;38.10;32.30;;;;;;5155182;27;20405;-72
2022/08/13 07:55:05;;;;;;;6.60;2.33;;;38.10;32.90;;;;;;5136496;27;20181;-73
2022/08/13 07:57:32;;;;;;;7.53;2.88;;;38.30;32.80;;;;;;5154902;27;20043;-73
2022/08/13 07:59:58;;;;;;;6.97;2.42;;;38.40;33.10;;;;;;5154126;27;20103;-73
2022/08/13 08:02:26;;;;;;;4.68;2.60;;;38.70;32.80;;;;;;5154934;27;20047;-71
2022/08/13 08:04:56;;;;;;;10.70;2.65;;;38.80;32.70;;;;;;5154826;27;20077;-72
2022/08/13 08:07:25;;;;;;;7.22;2.00;;;38.70;32.00;;;;;;5155059;27;20091;-72
2022/08/13 08:09:53;;;;;;;5.10;2.25;;;38.70;32.20;;;;;;5154769;27;20051;-72
2022/08/13 08:12:37;;;;;;;4.38;2.50;;;38.10;32.60;;;;;;5154460;27;20051;-72
2022/08/13 08:15:08;;;;;;;5.03;2.08;;;37.30;32.70;;;;;;5154280;27;20343;-73
2022/08/13 08:17:34;;;;;;;5.53;2.00;;;36.20;33.40;;;;;;5154826;27;20439;-73
2022/08/13 08:20:00;;;;;;;5.43;2.05;;;35.00;34.20;;;;;;5135843;27;20043;-73
2022/08/13 08:22:27;;;;;;;5.13;2.15;;;34.30;34.90;;;;;;5154660;27;20042;-72
2022/08/13 08:24:53;;;;;;;5.03;2.08;;;33.70;35.70;;;;;;5154343;27;20055;-72
2022/08/13 08:27:24;;;;;;;4.03;1.80;;;;;;;;;;5154366;27;20054;-72
2022/08/13 08:29:49;;;;;;;3.13;1.90;;;32.80;37.20;;;;;;5136303;27;20050;-72
2022/08/13 08:32:16;;;;;;;3.83;2.00;;;32.70;37.70;;;;;;5154321;27;20492;-73
2022/08/13 08:34:47;;;;;;;6.18;1.70;;;32.40;37.90;;;;;;5154521;27;20053;-73
2022/08/13 08:43:03;;;;;;;15.30;2.33;;;31.20;38.90;;;;;;5154293;27;20082;-70
2022/08/13 08:45:31;;;;;;;4.78;1.90;;;30.90;39.40;;;;;;5154288;27;20394;-71
2022/08/13 08:47:57;;;;;;;5.93;1.92;;;30.60;39.00;;;;;;5154116;27;20422;-71
2022/08/13 08:50:26;;;;;;;4.97;2.03;;;30.60;39.40;;;;;;5153753;27;20494;-78
2022/08/13 08:55:39;;;;;;;3.80;1.80;;;30.60;39.80;;;;;;5141504;27;20051;-72
2022/08/13 08:58:07;;;;;;;4.07;1.67;;;30.50;40.10;;;;;;5132964;27;20441;-78
2022/08/13 09:00:37;;;;;;;3.45;1.63;;;30.50;40.20;;;;;;5133416;27;20047;-79
2022/08/13 09:03:04;;;;;;;3.38;1.90;;;30.40;39.70;;;;;;5114973;28;20428;-77
2022/08/13 09:05:31;;;;;;;7.22;1.83;;;30.30;39.60;;;;;;5133348;28;20043;-82
2022/08/13 09:08:07;;;;;;;8.73;1.80;;;30.30;40.30;;;;;;5133523;28;20087;-79
2022/08/13 09:10:35;;;;;;;5.63;1.55;;;30.30;40.80;;;;;;5133937;27;20043;-78
2022/08/13 09:13:02;;;;;;;10.93;2.20;;;30.20;40.30;;;;;;5119428;27;20497;-73
2022/08/13 09:15:30;;;;;;;15.68;1.60;;;30.10;40.10;;;;;;5137673;27;20047;-82
2022/08/13 09:17:58;;;;;;;4.05;1.67;;;30.10;40.20;;;;;;5137593;27;20138;-80
2022/08/13 09:20:26;;;;;;;7.45;1.67;;;30.00;40.40;;;;;;5119205;27;20104;-82
2022/08/13 09:23:12;;;;;;;3.97;1.50;;;30.10;40.80;;;;;;5137402;27;20054;-78
2022/08/13 09:25:48;;;;;;;6.13;1.50;;;30.20;40.80;;;;;;5137548;27;20387;-80
2022/08/13 09:28:17;;;;;;;6.65;1.73;;;30.00;40.20;;;;;;5137259;27;20134;-77
2022/08/13 09:30:45;;;;;;;5.75;1.70;;;30.00;40.60;;;;;;5136974;27;20506;-81
2022/08/13 09:33:12;;;;;;;3.65;1.63;;;30.00;40.40;;;;;;5137215;27;20082;-81
2022/08/13 09:35:39;;;;;;;5.55;1.60;;;29.90;40.10;;;;;;5137771;27;20219;-81
2022/08/13 09:38:06;;;;;;;3.03;1.40;;;29.90;40.00;;;;;;5137206;27;20035;-79
2022/08/13 09:40:45;;;;;;;4.53;1.40;;;29.80;39.90;;;;;;5136990;27;20137;-71
2022/08/13 09:43:18;;;;;;;3.83;1.63;;;29.80;39.50;;;;;;5136700;27;20051;-74
2022/08/13 09:45:43;;;;;;;6.13;1.67;;;29.80;39.30;;;;;;5119022;27;20134;-77
2022/08/13 09:48:09;;;;;;;6.50;1.85;;;29.80;39.80;;;;;;5118481;27;20146;-75
2022/08/13 09:50:36;;;;;;;3.05;1.70;;;29.80;39.90;;;;;;5137045;27;20043;-78
2022/08/13 09:53:02;;;;;;;5.65;1.50;;;29.80;39.50;;;;;;5136930;27;20042;-80
2022/08/13 09:55:28;;;;;;;4.15;1.50;;;29.70;39.30;;;;;;5136245;27;20462;-81
2022/08/13 09:57:59;;;;;;;5.35;1.70;;;29.60;39.00;;;;;;5136884;27;20126;-79
2022/08/13 10:00:28;;;;;;;6.00;1.58;;;29.60;38.90;;;;;;5136507;27;20051;-84
2022/08/13 10:02:57;;;;;;;3.50;1.52;;;29.60;39.40;;;;;;5118699;27;20094;-84
2022/08/13 10:05:26;;;;;;;6.30;1.63;;;29.60;39.40;;;;;;5118071;27;20035;-83
2022/08/13 10:07:53;;;;;;;3.03;1.40;;;29.60;38.50;;;;;;5136805;27;20047;-83
2022/08/13 10:10:20;;;;;;;4.20;1.48;;;29.50;38.80;;;;;;5137023;27;20436;-87
2022/08/13 10:12:46;;;;;;;3.55;1.55;;;29.50;39.30;;;;;;5136422;27;20043;-82
2022/08/13 10:15:13;;;;;;;3.85;1.52;;;29.50;39.50;;;;;;5136367;27;20134;-78
2022/08/13 10:17:45;;;;;;;3.33;1.40;;;29.50;39.50;;;;;;5136281;27;20118;-79
2022/08/13 10:20:12;;;;;;;4.68;1.67;;;29.60;39.40;;;;;;5136035;27;20339;-78
2022/08/13 10:22:37;;;;;;;3.15;1.58;;;29.60;39.60;;;;;;5135679;27;20047;-77
2022/08/13 10:25:03;;;;;;;4.20;1.35;;;29.60;39.80;;;;;;5136345;27;20139;-78
2022/08/13 10:27:29;;;;;;;4.82;1.70;;;29.60;39.10;;;;;;5135876;27;20054;-74
2022/08/13 10:29:55;;;;;;;7.22;1.80;;;29.60;38.80;;;;;;5117803;27;20056;-74
2022/08/13 10:32:20;;;;;;;4.10;1.60;;;29.60;39.10;;;;;;5135819;27;20057;-72
2022/08/13 10:34:46;;;;;;;4.00;1.40;;;29.60;38.70;;;;;;5135944;27;20126;-73
2022/08/13 10:37:12;;;;;;;7.53;1.45;;;29.60;38.50;;;;;;5135824;27;20084;-78
2022/08/13 10:39:38;;;;;;;3.47;1.40;;;29.60;38.80;;;;;;5100663;27;20104;-73
2022/08/13 10:42:04;;;;;;;3.85;1.30;;;29.50;39.00;;;;;;5135470;27;20047;-71
2022/08/13 10:44:30;;;;;;;5.38;1.70;;;29.60;38.70;;;;;;5135489;27;20090;-72
2022/08/13 10:46:56;;;;;;;3.28;1.40;;;29.50;38.60;;;;;;5135740;27;20035;-72
2022/08/13 10:49:22;;;;;;;4.15;1.60;;;29.50;38.90;;;;;;5135339;27;20104;-72
2022/08/13 10:51:48;;;;;;;6.88;1.55;;;29.50;39.00;;;;;;5135609;27;20086;-71
2022/08/13 10:54:14;;;;;;;3.27;1.30;;;29.50;39.10;;;;;;5135454;27;20090;-73
2022/08/13 10:56:39;;;;;;;5.28;1.95;;;29.50;39.00;;;;;;5135621;27;20483;-71
2022/08/13 10:59:05;;;;;;;4.53;1.58;;;29.50;38.80;;;;;;5117180;27;20050;-75
2022/08/13 11:01:32;;;;;;;4.83;1.30;;;29.40;38.50;;;;;;5116891;27;20046;-74
2022/08/13 11:04:01;;;;;;;2.93;1.40;;;29.50;38.60;;;;;;5135487;27;20047;-75
2022/08/13 11:06:28;;;;;;;2.25;1.30;;;29.50;38.90;;;;;;5117586;27;20478;-73
2022/08/13 11:08:57;;;;;;;7.17;1.53;;;29.60;38.10;;;;;;5130002;27;20498;-74
2022/08/13 11:11:24;;;;;;;4.97;1.60;;;29.50;38.10;;;;;;5129508;27;20554;-72
2022/08/13 11:13:50;;;;;;;5.13;2.05;;;29.50;38.50;;;;;;5129292;27;20675;-71
2022/08/13 11:19:01;;;;;;;;;;;29.50;38.50;;;;;;5149631;27;20399;-72
2022/08/13 11:21:27;;;;;;;5.10;1.42;;;29.50;38.70;;;;;;5149686;27;20003;-71
2022/08/13 11:23:53;;;;;;;2.97;1.40;;;29.50;38.50;;;;;;5149937;27;20062;-75
2022/08/13 11:26:20;;;;;;;3.42;1.38;;;29.50;37.90;;;;;;5145693;27;20578;-74
2022/08/13 11:28:45;;;;;;;2.83;1.40;;;29.50;38.10;;;;;;5127799;27;20406;-73
2022/08/13 11:31:11;;;;;;;5.32;1.88;;;29.50;38.30;;;;;;5129663;27;20047;-72
2022/08/13 11:33:37;;;;;;;7.47;1.93;;;29.50;38.10;;;;;;5093528;27;20134;-71
2022/08/13 11:36:03;;;;;;;3.60;1.63;;;29.50;37.80;;;;;;5128784;27;20068;-73
2022/08/13 11:38:29;;;;;;;5.00;1.70;;;29.50;37.50;;;;;;5111460;27;20030;-72
2022/08/13 11:40:57;;;;;;;4.10;1.30;;;29.60;37.40;;;;;;5143419;27;20123;-74
2022/08/13 11:43:26;;;;;;;3.73;1.50;;;29.60;37.40;;;;;;5130015;27;20035;-71
2022/08/13 11:45:52;;;;;;;4.40;1.40;;;29.60;37.50;;;;;;5128423;27;20699;-70
2022/08/13 11:48:19;;;;;;;5.70;1.60;;;29.60;37.60;;;;;;5126740;27;20039;-72
2022/08/13 11:50:49;;;;;;;3.27;1.37;;;29.60;36.50;;;;;;5128785;27;20046;-74
2022/08/13 11:53:15;;;;;;;3.00;1.30;;;29.70;36.80;;;;;;5129474;27;20485;-70
2022/08/13 11:55:41;;;;;;;3.80;1.63;;;29.70;36.70;;;;;;5128558;27;20047;-72
2022/08/13 11:58:08;;;;;;;6.00;1.40;;;29.70;36.90;;;;;;5126082;27;20058;-73
2022/08/13 12:00:36;;;;;;;4.33;1.60;;;29.60;37.20;;;;;;5134134;27;20047;-75
2022/08/13 12:03:04;;;;;;;2.30;1.30;;;29.60;37.00;;;;;;5111191;27;20146;-70
2022/08/13 12:05:30;;;;;;;2.10;1.40;;;29.60;37.20;;;;;;5128670;27;20070;-72
2022/08/13 12:07:56;;;;;;;6.87;1.77;;;29.60;37.30;;;;;;5127630;27;20131;-72
2022/08/13 12:10:22;;;;;;;5.07;1.70;;;29.50;37.20;;;;;;5149261;27;20382;-77
2022/08/13 12:12:48;;;;;;;3.07;1.43;;;29.50;37.60;;;;;;5131482;27;20103;-73
2022/08/13 12:15:14;;;;;;;3.07;1.60;;;29.50;37.00;;;;;;5149162;27;20397;-73
2022/08/13 12:17:45;;;;;;;3.10;1.50;;;29.50;37.00;;;;;;5127514;27;20050;-71
2022/08/13 12:20:14;;;;;;;4.80;1.53;;;29.50;37.30;;;;;;5130744;27;20745;-73
2022/08/13 12:22:40;;;;;;;4.23;1.40;;;29.50;37.40;;;;;;5149472;27;20120;-71
2022/08/13 12:25:08;;;;;;;3.60;1.50;;;29.60;37.30;;;;;;5148787;27;20046;-70
2022/08/13 12:27:34;;;;;;;3.77;1.60;;;29.70;37.10;;;;;;5133302;27;20082;-71
2022/08/13 12:30:00;;;;;;;2.87;1.50;;;29.70;36.50;;;;;;5127946;27;20097;-72
2022/08/13 12:32:26;;;;;;;8.00;2.10;;;29.70;36.30;;;;;;5128678;27;20089;-71
2022/08/13 12:34:52;;;;;;;4.73;1.40;;;29.60;36.20;;;;;;5128107;27;20043;-71
2022/08/13 12:37:18;;;;;;;6.70;1.60;;;29.50;37.00;;;;;;5129221;27;20104;-70
2022/08/13 12:39:43;;;;;;;6.53;1.60;;;29.50;37.60;;;;;;5127748;27;20047;-73
2022/08/13 12:42:09;;;;;;;4.90;1.47;;;29.50;37.70;;;;;;5138086;27;20043;-71
2022/08/13 12:44:35;;;;;;;3.30;1.80;;;29.50;37.70;;;;;;5148143;27;20046;-70
2022/08/13 12:47:02;;;;;;;5.77;1.37;;;29.40;38.10;;;;;;5138751;27;20429;-71
2022/08/13 12:49:28;;;;;;;4.53;1.43;;;29.40;38.00;;;;;;5128412;27;20054;-72
2022/08/13 12:51:53;;;;;;;3.17;1.47;;;29.40;37.40;;;;;;5128323;27;20047;-69
2022/08/13 12:54:19;;;;;;;3.53;1.73;;;29.50;36.90;;;;;;5127798;27;20046;-69
2022/08/13 12:56:45;;;;;;;2.87;1.50;;;29.50;37.10;;;;;;5128150;27;20058;-74
2022/08/13 12:59:11;;;;;;;4.50;1.50;;;29.50;37.10;;;;;;5128160;27;20725;-70
2022/08/13 13:01:36;;;;;;;2.07;1.30;;;29.50;37.10;;;;;;5127541;27;20505;-69
2022/08/13 13:04:02;;;;;;;2.80;1.67;;;29.50;36.70;;;;;;5127957;27;20051;-73
2022/08/13 13:06:28;;;;;;;4.43;1.80;;;29.40;36.80;;;;;;5126928;27;20047;-72
2022/08/13 13:08:54;;;;;;;3.07;1.60;;;29.40;37.00;;;;;;5126960;27;20054;-71
2022/08/13 13:11:20;;;;;;;3.23;1.60;;;29.40;37.40;;;;;;5128241;27;20557;-76
2022/08/13 13:13:49;;;;;;;5.13;1.60;;;29.40;37.50;;;;;;5109718;28;20126;-71
2022/08/13 13:16:16;;;;;;;2.87;1.83;;;29.40;36.80;;;;;;5127712;27;20091;-71